sensor_id;sensor_type;location;lat;lon;timestamp;temperature;humidity
75648;DHT22;66269;51.466;7.260;2023-02-01T00:02:02;22.20;43.70
75648;DHT22;66269;51.466;7.260;2023-02-01T00:04:28;22.20;43.60
75648;DHT22;66269;51.466;7.260;2023-02-01T00:06:53;22.20;43.60
75648;DHT22;66269;51.466;7.260;2023-02-01T00:09:19;22.20;43.70
75648;DHT22;66269;51.466;7.260;2023-02-01T00:11:44;22.10;43.70
75648;DHT22;66269;51.466;7.260;2023-02-01T00:14:10;22.20;43.50
75648;DHT22;66269;51.466;7.260;2023-02-01T00:16:36;22.20;43.80
75648;DHT22;66269;51.466;7.260;2023-02-01T00:19:05;22.10;43.50
75648;DHT22;66269;51.466;7.260;2023-02-01T00:21:31;22.10;43.80
75648;DHT22;66269;51.466;7.260;2023-02-01T00:23:58;22.20;43.80
75648;DHT22;66269;51.466;7.260;2023-02-01T00:26:36;22.20;43.50
75648;DHT22;66269;51.466;7.260;2023-02-01T00:29:04;22.10;43.80
75648;DHT22;66269;51.466;7.260;2023-02-01T00:31:30;22.10;43.60
75648;DHT22;66269;51.466;7.260;2023-02-01T00:33:55;22.20;43.70
75648;DHT22;66269;51.466;7.260;2023-02-01T00:36:21;22.10;43.90
75648;DHT22;66269;51.466;7.260;2023-02-01T00:38:47;22.10;43.70
75648;DHT22;66269;51.466;7.260;2023-02-01T00:41:15;22.20;43.70
75648;DHT22;66269;51.466;7.260;2023-02-01T00:43:41;22.10;43.60
75648;DHT22;66269;51.466;7.260;2023-02-01T00:46:07;22.20;43.70
75648;DHT22;66269;51.466;7.260;2023-02-01T00:48:32;22.10;43.60
75648;DHT22;66269;51.466;7.260;2023-02-01T00:51:03;22.10;43.80
75648;DHT22;66269;51.466;7.260;2023-02-01T00:53:29;22.00;43.90
75648;DHT22;66269;51.466;7.260;2023-02-01T00:55:55;22.10;43.90
75648;DHT22;66269;51.466;7.260;2023-02-01T00:58:21;22.10;43.80
75648;DHT22;66269;51.466;7.260;2023-02-01T01:00:49;22.10;43.80
75648;DHT22;66269;51.466;7.260;2023-02-01T01:03:15;22.10;43.60
75648;DHT22;66269;51.466;7.260;2023-02-01T01:05:57;22.10;43.80
75648;DHT22;66269;51.466;7.260;2023-02-01T01:08:23;22.10;43.80
75648;DHT22;66269;51.466;7.260;2023-02-01T01:10:48;22.10;43.50
75648;DHT22;66269;51.466;7.260;2023-02-01T01:13:15;22.10;43.90
75648;DHT22;66269;51.466;7.260;2023-02-01T01:15:41;22.00;43.60
75648;DHT22;66269;51.466;7.260;2023-02-01T01:18:07;22.20;43.70
75648;DHT22;66269;51.466;7.260;2023-02-01T01:20:38;22.10;43.70
75648;DHT22;66269;51.466;7.260;2023-02-01T01:23:04;22.10;43.60
75648;DHT22;66269;51.466;7.260;2023-02-01T01:25:30;22.10;43.80
75648;DHT22;66269;51.466;7.260;2023-02-01T01:27:56;22.00;43.70
75648;DHT22;66269;51.466;7.260;2023-02-01T01:30:21;22.10;43.50
75648;DHT22;66269;51.466;7.260;2023-02-01T01:32:47;22.10;43.60
75648;DHT22;66269;51.466;7.260;2023-02-01T01:35:13;22.20;43.70
75648;DHT22;66269;51.466;7.260;2023-02-01T01:37:38;22.10;43.40
75648;DHT22;66269;51.466;7.260;2023-02-01T01:40:05;22.10;43.70
75648;DHT22;66269;51.466;7.260;2023-02-01T01:42:40;22.10;43.60
75648;DHT22;66269;51.466;7.260;2023-02-01T01:47:54;22.10;43.40
75648;DHT22;66269;51.466;7.260;2023-02-01T01:53:12;22.00;43.70
75648;DHT22;66269;51.466;7.260;2023-02-01T01:55:41;22.10;43.70
75648;DHT22;66269;51.466;7.260;2023-02-01T01:58:12;22.00;43.70
75648;DHT22;66269;51.466;7.260;2023-02-01T02:00:39;22.10;43.60
75648;DHT22;66269;51.466;7.260;2023-02-01T02:03:18;22.10;43.70
75648;DHT22;66269;51.466;7.260;2023-02-01T02:05:46;22.10;43.70
75648;DHT22;66269;51.466;7.260;2023-02-01T02:08:13;22.00;43.60
75648;DHT22;66269;51.466;7.260;2023-02-01T02:10:39;22.10;43.70
75648;DHT22;66269;51.466;7.260;2023-02-01T02:13:23;22.10;43.40
75648;DHT22;66269;51.466;7.260;2023-02-01T02:18:41;22.10;43.50
75648;DHT22;66269;51.466;7.260;2023-02-01T02:24:34;22.00;43.50
75648;DHT22;66269;51.466;7.260;2023-02-01T02:36:09;22.00;43.50
75648;DHT22;66269;51.466;7.260;2023-02-01T02:38:40;22.00;43.50
75648;DHT22;66269;51.466;7.260;2023-02-01T02:47:20;22.00;43.50
75648;DHT22;66269;51.466;7.260;2023-02-01T02:50:02;22.00;43.50
75648;DHT22;66269;51.466;7.260;2023-02-01T02:53:38;22.00;43.70
75648;DHT22;66269;51.466;7.260;2023-02-01T02:56:05;22.00;43.70
75648;DHT22;66269;51.466;7.260;2023-02-01T02:58:50;22.00;43.60
75648;DHT22;66269;51.466;7.260;2023-02-01T03:01:36;22.00;43.50
75648;DHT22;66269;51.466;7.260;2023-02-01T03:04:21;21.90;43.40
75648;DHT22;66269;51.466;7.260;2023-02-01T03:06:49;22.00;43.60
75648;DHT22;66269;51.466;7.260;2023-02-01T03:09:31;22.00;43.40
75648;DHT22;66269;51.466;7.260;2023-02-01T03:12:05;21.90;43.60
75648;DHT22;66269;51.466;7.260;2023-02-01T03:15:00;22.00;43.50
75648;DHT22;66269;51.466;7.260;2023-02-01T03:17:34;22.00;43.50
75648;DHT22;66269;51.466;7.260;2023-02-01T03:20:02;22.00;43.40
75648;DHT22;66269;51.466;7.260;2023-02-01T03:22:29;21.90;43.50
75648;DHT22;66269;51.466;7.260;2023-02-01T03:25:05;22.00;43.80
75648;DHT22;66269;51.466;7.260;2023-02-01T03:27:37;22.00;43.50
75648;DHT22;66269;51.466;7.260;2023-02-01T03:32:38;22.00;43.60
75648;DHT22;66269;51.466;7.260;2023-02-01T03:35:46;21.90;43.50
75648;DHT22;66269;51.466;7.260;2023-02-01T03:38:27;22.00;43.60
75648;DHT22;66269;51.466;7.260;2023-02-01T03:43:52;22.00;43.60
75648;DHT22;66269;51.466;7.260;2023-02-01T03:46:26;22.00;43.10
75648;DHT22;66269;51.466;7.260;2023-02-01T03:48:53;21.90;43.30
75648;DHT22;66269;51.466;7.260;2023-02-01T03:51:21;22.00;43.50
75648;DHT22;66269;51.466;7.260;2023-02-01T03:53:48;21.90;43.40
75648;DHT22;66269;51.466;7.260;2023-02-01T03:56:16;22.00;43.50
75648;DHT22;66269;51.466;7.260;2023-02-01T03:58:43;22.00;43.30
75648;DHT22;66269;51.466;7.260;2023-02-01T04:01:23;22.00;43.60
75648;DHT22;66269;51.466;7.260;2023-02-01T04:03:48;22.00;43.40
75648;DHT22;66269;51.466;7.260;2023-02-01T04:06:15;22.00;43.50
75648;DHT22;66269;51.466;7.260;2023-02-01T04:08:40;22.00;43.50
75648;DHT22;66269;51.466;7.260;2023-02-01T04:11:06;22.00;43.30
75648;DHT22;66269;51.466;7.260;2023-02-01T04:13:31;22.00;43.40
75648;DHT22;66269;51.466;7.260;2023-02-01T04:15:57;22.00;43.50
75648;DHT22;66269;51.466;7.260;2023-02-01T04:18:22;22.00;43.50
75648;DHT22;66269;51.466;7.260;2023-02-01T04:20:48;22.00;43.30
75648;DHT22;66269;51.466;7.260;2023-02-01T04:23:13;22.00;43.20
75648;DHT22;66269;51.466;7.260;2023-02-01T04:25:41;22.00;43.40
75648;DHT22;66269;51.466;7.260;2023-02-01T04:28:06;22.00;43.40
75648;DHT22;66269;51.466;7.260;2023-02-01T04:30:32;22.00;43.30
75648;DHT22;66269;51.466;7.260;2023-02-01T04:32:58;22.00;43.30
75648;DHT22;66269;51.466;7.260;2023-02-01T04:35:23;22.00;43.20
75648;DHT22;66269;51.466;7.260;2023-02-01T04:37:49;22.00;43.50
75648;DHT22;66269;51.466;7.260;2023-02-01T04:40:14;22.00;43.30
75648;DHT22;66269;51.466;7.260;2023-02-01T04:42:41;22.00;43.40
75648;DHT22;66269;51.466;7.260;2023-02-01T04:45:07;22.00;43.10
75648;DHT22;66269;51.466;7.260;2023-02-01T04:47:34;22.00;43.30
75648;DHT22;66269;51.466;7.260;2023-02-01T04:50:00;21.90;43.30
75648;DHT22;66269;51.466;7.260;2023-02-01T04:52:25;22.00;43.40
75648;DHT22;66269;51.466;7.260;2023-02-01T04:54:52;22.00;43.30
75648;DHT22;66269;51.466;7.260;2023-02-01T04:57:19;22.00;43.50
75648;DHT22;66269;51.466;7.260;2023-02-01T04:59:45;22.00;43.30
75648;DHT22;66269;51.466;7.260;2023-02-01T05:02:10;21.90;43.30
75648;DHT22;66269;51.466;7.260;2023-02-01T05:04:36;21.90;43.30
75648;DHT22;66269;51.466;7.260;2023-02-01T05:07:01;22.00;43.40
75648;DHT22;66269;51.466;7.260;2023-02-01T05:09:27;21.90;43.40
75648;DHT22;66269;51.466;7.260;2023-02-01T05:11:52;22.00;43.30
75648;DHT22;66269;51.466;7.260;2023-02-01T05:14:37;22.00;43.30
75648;DHT22;66269;51.466;7.260;2023-02-01T05:17:02;21.90;43.20
75648;DHT22;66269;51.466;7.260;2023-02-01T05:19:28;21.90;43.20
75648;DHT22;66269;51.466;7.260;2023-02-01T05:21:53;21.90;43.20
75648;DHT22;66269;51.466;7.260;2023-02-01T05:24:19;21.90;43.00
75648;DHT22;66269;51.466;7.260;2023-02-01T05:26:48;21.90;43.20
75648;DHT22;66269;51.466;7.260;2023-02-01T05:29:14;21.90;43.20
75648;DHT22;66269;51.466;7.260;2023-02-01T05:31:40;21.90;43.30
75648;DHT22;66269;51.466;7.260;2023-02-01T05:34:06;21.90;43.30
75648;DHT22;66269;51.466;7.260;2023-02-01T05:36:32;21.90;43.30
75648;DHT22;66269;51.466;7.260;2023-02-01T05:38:57;22.00;43.10
75648;DHT22;66269;51.466;7.260;2023-02-01T05:41:23;21.90;43.10
75648;DHT22;66269;51.466;7.260;2023-02-01T05:43:49;21.90;43.20
75648;DHT22;66269;51.466;7.260;2023-02-01T05:46:14;21.90;43.40
75648;DHT22;66269;51.466;7.260;2023-02-01T05:48:40;22.00;43.30
75648;DHT22;66269;51.466;7.260;2023-02-01T05:51:06;21.90;43.30
75648;DHT22;66269;51.466;7.260;2023-02-01T05:53:32;21.90;43.30
75648;DHT22;66269;51.466;7.260;2023-02-01T05:55:57;22.00;43.30
75648;DHT22;66269;51.466;7.260;2023-02-01T05:58:23;21.90;43.20
75648;DHT22;66269;51.466;7.260;2023-02-01T06:00:48;22.00;43.20
75648;DHT22;66269;51.466;7.260;2023-02-01T06:03:14;22.00;43.10
75648;DHT22;66269;51.466;7.260;2023-02-01T06:05:39;22.00;43.10
75648;DHT22;66269;51.466;7.260;2023-02-01T06:08:05;21.90;43.20
75648;DHT22;66269;51.466;7.260;2023-02-01T06:10:33;21.90;43.10
75648;DHT22;66269;51.466;7.260;2023-02-01T06:12:58;22.00;43.20
75648;DHT22;66269;51.466;7.260;2023-02-01T06:15:24;21.90;43.20
75648;DHT22;66269;51.466;7.260;2023-02-01T06:17:49;21.70;43.30
75648;DHT22;66269;51.466;7.260;2023-02-01T06:20:15;21.70;43.10
75648;DHT22;66269;51.466;7.260;2023-02-01T06:22:41;21.60;43.30
75648;DHT22;66269;51.466;7.260;2023-02-01T06:25:09;21.50;43.20
75648;DHT22;66269;51.466;7.260;2023-02-01T06:27:35;21.50;43.30
75648;DHT22;66269;51.466;7.260;2023-02-01T06:30:03;21.60;43.30
75648;DHT22;66269;51.466;7.260;2023-02-01T06:32:28;21.50;43.30
75648;DHT22;66269;51.466;7.260;2023-02-01T06:34:54;21.50;43.40
75648;DHT22;66269;51.466;7.260;2023-02-01T06:37:22;21.50;43.30
75648;DHT22;66269;51.466;7.260;2023-02-01T06:39:48;21.60;43.50
75648;DHT22;66269;51.466;7.260;2023-02-01T06:42:14;21.60;43.30
75648;DHT22;66269;51.466;7.260;2023-02-01T06:44:39;21.50;43.10
75648;DHT22;66269;51.466;7.260;2023-02-01T06:47:05;21.60;43.30
75648;DHT22;66269;51.466;7.260;2023-02-01T06:49:31;21.70;43.00
75648;DHT22;66269;51.466;7.260;2023-02-01T06:51:56;21.60;43.20
75648;DHT22;66269;51.466;7.260;2023-02-01T06:54:22;21.70;43.10
75648;DHT22;66269;51.466;7.260;2023-02-01T06:56:47;21.70;42.80
75648;DHT22;66269;51.466;7.260;2023-02-01T06:59:13;21.70;42.80
75648;DHT22;66269;51.466;7.260;2023-02-01T07:01:39;21.70;42.60
75648;DHT22;66269;51.466;7.260;2023-02-01T07:04:04;21.70;43.00
75648;DHT22;66269;51.466;7.260;2023-02-01T07:06:30;21.70;42.80
75648;DHT22;66269;51.466;7.260;2023-02-01T07:08:57;21.70;42.60
75648;DHT22;66269;51.466;7.260;2023-02-01T07:11:22;21.80;42.70
75648;DHT22;66269;51.466;7.260;2023-02-01T07:13:48;21.80;42.80
75648;DHT22;66269;51.466;7.260;2023-02-01T07:16:17;21.80;42.60
75648;DHT22;66269;51.466;7.260;2023-02-01T07:18:43;21.70;42.80
75648;DHT22;66269;51.466;7.260;2023-02-01T07:21:09;21.80;42.60
75648;DHT22;66269;51.466;7.260;2023-02-01T07:23:35;21.80;42.70
75648;DHT22;66269;51.466;7.260;2023-02-01T07:26:03;21.80;42.50
75648;DHT22;66269;51.466;7.260;2023-02-01T07:28:31;21.80;42.30
75648;DHT22;66269;51.466;7.260;2023-02-01T07:31:10;21.90;42.60
75648;DHT22;66269;51.466;7.260;2023-02-01T07:33:36;21.90;42.50
75648;DHT22;66269;51.466;7.260;2023-02-01T07:36:04;21.90;42.30
75648;DHT22;66269;51.466;7.260;2023-02-01T07:38:30;21.90;42.20
75648;DHT22;66269;51.466;7.260;2023-02-01T07:41:04;22.00;42.40
75648;DHT22;66269;51.466;7.260;2023-02-01T07:43:30;21.90;42.40
75648;DHT22;66269;51.466;7.260;2023-02-01T07:45:56;21.90;42.30
75648;DHT22;66269;51.466;7.260;2023-02-01T07:48:23;22.00;42.50
75648;DHT22;66269;51.466;7.260;2023-02-01T07:51:10;21.90;42.20
75648;DHT22;66269;51.466;7.260;2023-02-01T07:53:36;22.00;42.40
75648;DHT22;66269;51.466;7.260;2023-02-01T07:56:03;22.10;42.20
75648;DHT22;66269;51.466;7.260;2023-02-01T07:58:28;22.10;42.40
75648;DHT22;66269;51.466;7.260;2023-02-01T08:00:55;22.10;42.00
75648;DHT22;66269;51.466;7.260;2023-02-01T08:03:39;22.10;41.90
75648;DHT22;66269;51.466;7.260;2023-02-01T08:06:05;22.20;41.80
75648;DHT22;66269;51.466;7.260;2023-02-01T08:08:32;22.20;41.80
75648;DHT22;66269;51.466;7.260;2023-02-01T08:11:01;22.20;41.80
75648;DHT22;66269;51.466;7.260;2023-02-01T08:13:27;22.30;42.10
75648;DHT22;66269;51.466;7.260;2023-02-01T08:15:58;22.30;42.00
75648;DHT22;66269;51.466;7.260;2023-02-01T08:18:24;22.30;42.00
75648;DHT22;66269;51.466;7.260;2023-02-01T08:20:50;22.30;41.80
75648;DHT22;66269;51.466;7.260;2023-02-01T08:23:16;22.30;42.00
75648;DHT22;66269;51.466;7.260;2023-02-01T08:25:43;22.30;41.90
75648;DHT22;66269;51.466;7.260;2023-02-01T08:28:09;22.30;42.00
75648;DHT22;66269;51.466;7.260;2023-02-01T08:30:37;22.30;41.80
75648;DHT22;66269;51.466;7.260;2023-02-01T08:33:03;22.30;41.60
75648;DHT22;66269;51.466;7.260;2023-02-01T08:35:31;22.30;41.70
75648;DHT22;66269;51.466;7.260;2023-02-01T08:37:56;22.30;41.60
75648;DHT22;66269;51.466;7.260;2023-02-01T08:40:22;22.50;41.80
75648;DHT22;66269;51.466;7.260;2023-02-01T08:42:48;22.30;41.90
75648;DHT22;66269;51.466;7.260;2023-02-01T08:45:20;22.30;41.80
75648;DHT22;66269;51.466;7.260;2023-02-01T08:47:46;22.40;41.70
75648;DHT22;66269;51.466;7.260;2023-02-01T08:50:13;22.40;41.90
75648;DHT22;66269;51.466;7.260;2023-02-01T08:52:38;22.40;41.80
75648;DHT22;66269;51.466;7.260;2023-02-01T08:55:05;22.40;41.80
75648;DHT22;66269;51.466;7.260;2023-02-01T08:57:31;22.40;41.80
75648;DHT22;66269;51.466;7.260;2023-02-01T08:59:57;22.50;41.90
75648;DHT22;66269;51.466;7.260;2023-02-01T09:02:22;22.40;41.80
75648;DHT22;66269;51.466;7.260;2023-02-01T09:04:48;22.50;41.80
75648;DHT22;66269;51.466;7.260;2023-02-01T09:07:13;22.50;41.80
75648;DHT22;66269;51.466;7.260;2023-02-01T09:09:39;22.40;41.90
75648;DHT22;66269;51.466;7.260;2023-02-01T09:12:05;22.50;41.70
75648;DHT22;66269;51.466;7.260;2023-02-01T09:14:31;22.60;41.80
75648;DHT22;66269;51.466;7.260;2023-02-01T09:16:56;22.50;41.80
75648;DHT22;66269;51.466;7.260;2023-02-01T09:19:22;22.60;41.70
75648;DHT22;66269;51.466;7.260;2023-02-01T09:21:47;22.60;41.70
75648;DHT22;66269;51.466;7.260;2023-02-01T09:24:13;22.60;41.60
75648;DHT22;66269;51.466;7.260;2023-02-01T09:26:39;22.60;41.70
75648;DHT22;66269;51.466;7.260;2023-02-01T09:29:05;22.60;41.70
75648;DHT22;66269;51.466;7.260;2023-02-01T09:31:37;22.60;41.70
75648;DHT22;66269;51.466;7.260;2023-02-01T09:34:04;22.70;41.70
75648;DHT22;66269;51.466;7.260;2023-02-01T09:36:29;22.70;41.60
75648;DHT22;66269;51.466;7.260;2023-02-01T09:38:55;22.60;41.50
75648;DHT22;66269;51.466;7.260;2023-02-01T09:41:46;22.70;41.50
75648;DHT22;66269;51.466;7.260;2023-02-01T09:44:19;22.60;41.50
75648;DHT22;66269;51.466;7.260;2023-02-01T09:46:47;22.60;41.70
75648;DHT22;66269;51.466;7.260;2023-02-01T09:49:23;22.60;41.60
75648;DHT22;66269;51.466;7.260;2023-02-01T09:51:52;22.60;41.50
75648;DHT22;66269;51.466;7.260;2023-02-01T09:54:27;22.60;41.50
75648;DHT22;66269;51.466;7.260;2023-02-01T09:59:40;22.70;41.50
75648;DHT22;66269;51.466;7.260;2023-02-01T10:02:22;22.70;41.40
75648;DHT22;66269;51.466;7.260;2023-02-01T10:04:49;22.70;41.60
75648;DHT22;66269;51.466;7.260;2023-02-01T10:07:24;22.70;41.40
75648;DHT22;66269;51.466;7.260;2023-02-01T10:10:23;22.70;41.60
75648;DHT22;66269;51.466;7.260;2023-02-01T10:23:54;22.70;41.50
75648;DHT22;66269;51.466;7.260;2023-02-01T10:26:24;22.80;41.40
75648;DHT22;66269;51.466;7.260;2023-02-01T10:29:00;22.70;41.40
75648;DHT22;66269;51.466;7.260;2023-02-01T10:31:28;22.80;41.60
75648;DHT22;66269;51.466;7.260;2023-02-01T10:34:00;22.80;41.40
75648;DHT22;66269;51.466;7.260;2023-02-01T10:36:34;22.80;41.40
75648;DHT22;66269;51.466;7.260;2023-02-01T10:39:04;22.80;41.40
75648;DHT22;66269;51.466;7.260;2023-02-01T10:41:35;22.90;41.10
75648;DHT22;66269;51.466;7.260;2023-02-01T10:44:03;22.90;41.40
75648;DHT22;66269;51.466;7.260;2023-02-01T10:46:30;22.90;41.30
75648;DHT22;66269;51.466;7.260;2023-02-01T10:48:58;22.90;41.60
75648;DHT22;66269;51.466;7.260;2023-02-01T10:51:30;22.80;41.30
75648;DHT22;66269;51.466;7.260;2023-02-01T10:54:03;22.90;41.20
75648;DHT22;66269;51.466;7.260;2023-02-01T10:56:37;22.80;41.60
75648;DHT22;66269;51.466;7.260;2023-02-01T10:59:05;22.80;41.20
75648;DHT22;66269;51.466;7.260;2023-02-01T11:01:39;23.00;41.40
75648;DHT22;66269;51.466;7.260;2023-02-01T11:04:09;22.90;41.40
75648;DHT22;66269;51.466;7.260;2023-02-01T11:06:38;22.90;41.60
75648;DHT22;66269;51.466;7.260;2023-02-01T11:16:53;23.00;41.80
75648;DHT22;66269;51.466;7.260;2023-02-01T11:19:19;22.90;41.20
75648;DHT22;66269;51.466;7.260;2023-02-01T11:21:58;23.00;41.60
75648;DHT22;66269;51.466;7.260;2023-02-01T11:24:36;23.10;42.10
75648;DHT22;66269;51.466;7.260;2023-02-01T11:27:05;23.10;41.60
75648;DHT22;66269;51.466;7.260;2023-02-01T11:29:40;23.10;42.00
75648;DHT22;66269;51.466;7.260;2023-02-01T11:32:08;23.00;41.70
75648;DHT22;66269;51.466;7.260;2023-02-01T11:34:44;23.10;41.80
75648;DHT22;66269;51.466;7.260;2023-02-01T11:37:33;23.10;41.70
75648;DHT22;66269;51.466;7.260;2023-02-01T11:40:26;23.00;41.90
75648;DHT22;66269;51.466;7.260;2023-02-01T11:43:00;23.00;41.70
75648;DHT22;66269;51.466;7.260;2023-02-01T11:45:33;23.00;41.60
75648;DHT22;66269;51.466;7.260;2023-02-01T11:48:00;23.00;41.60
75648;DHT22;66269;51.466;7.260;2023-02-01T11:53:52;23.00;41.70
75648;DHT22;66269;51.466;7.260;2023-02-01T12:02:16;23.00;41.50
75648;DHT22;66269;51.466;7.260;2023-02-01T12:05:14;23.00;41.40
75648;DHT22;66269;51.466;7.260;2023-02-01T12:24:43;23.00;41.80
75648;DHT22;66269;51.466;7.260;2023-02-01T12:33:20;23.00;41.90
75648;DHT22;66269;51.466;7.260;2023-02-01T12:36:15;23.00;41.90
75648;DHT22;66269;51.466;7.260;2023-02-01T12:38:46;23.00;41.90
75648;DHT22;66269;51.466;7.260;2023-02-01T12:46:40;23.00;41.80
75648;DHT22;66269;51.466;7.260;2023-02-01T12:49:22;23.00;41.70
75648;DHT22;66269;51.466;7.260;2023-02-01T12:51:54;23.00;41.90
75648;DHT22;66269;51.466;7.260;2023-02-01T12:54:45;23.10;41.70
75648;DHT22;66269;51.466;7.260;2023-02-01T12:57:16;23.10;41.80
75648;DHT22;66269;51.466;7.260;2023-02-01T13:00:01;23.00;41.90
75648;DHT22;66269;51.466;7.260;2023-02-01T13:05:47;23.10;41.90
75648;DHT22;66269;51.466;7.260;2023-02-01T13:08:22;23.00;41.90
75648;DHT22;66269;51.466;7.260;2023-02-01T13:10:56;23.00;42.00
75648;DHT22;66269;51.466;7.260;2023-02-01T13:13:35;23.00;41.80
75648;DHT22;66269;51.466;7.260;2023-02-01T13:16:27;23.00;41.80
75648;DHT22;66269;51.466;7.260;2023-02-01T13:19:05;23.00;41.70
75648;DHT22;66269;51.466;7.260;2023-02-01T13:21:35;23.10;41.80
75648;DHT22;66269;51.466;7.260;2023-02-01T13:24:03;23.00;41.80
75648;DHT22;66269;51.466;7.260;2023-02-01T13:26:29;23.10;41.80
75648;DHT22;66269;51.466;7.260;2023-02-01T13:34:49;23.10;42.10
75648;DHT22;66269;51.466;7.260;2023-02-01T13:37:36;23.10;41.80
75648;DHT22;66269;51.466;7.260;2023-02-01T13:40:39;23.10;41.90
75648;DHT22;66269;51.466;7.260;2023-02-01T13:43:15;23.10;41.70
75648;DHT22;66269;51.466;7.260;2023-02-01T13:45:49;23.10;41.70
75648;DHT22;66269;51.466;7.260;2023-02-01T13:48:28;23.00;41.80
75648;DHT22;66269;51.466;7.260;2023-02-01T13:50:57;23.10;42.00
75648;DHT22;66269;51.466;7.260;2023-02-01T13:53:31;23.00;42.00
75648;DHT22;66269;51.466;7.260;2023-02-01T13:56:01;23.00;41.90
75648;DHT22;66269;51.466;7.260;2023-02-01T13:58:39;23.10;41.80
75648;DHT22;66269;51.466;7.260;2023-02-01T14:06:35;23.20;41.90
75648;DHT22;66269;51.466;7.260;2023-02-01T14:11:51;23.10;41.60
75648;DHT22;66269;51.466;7.260;2023-02-01T14:16:43;23.10;41.70
75648;DHT22;66269;51.466;7.260;2023-02-01T14:19:23;23.20;41.80
75648;DHT22;66269;51.466;7.260;2023-02-01T14:21:51;23.10;41.50
75648;DHT22;66269;51.466;7.260;2023-02-01T14:24:26;23.10;41.70
75648;DHT22;66269;51.466;7.260;2023-02-01T14:26:54;23.10;41.80
75648;DHT22;66269;51.466;7.260;2023-02-01T14:29:30;23.20;41.70
75648;DHT22;66269;51.466;7.260;2023-02-01T14:32:17;23.20;41.80
75648;DHT22;66269;51.466;7.260;2023-02-01T14:42:31;23.20;41.60
75648;DHT22;66269;51.466;7.260;2023-02-01T14:47:43;23.10;41.80
75648;DHT22;66269;51.466;7.260;2023-02-01T14:55:43;23.10;41.90
75648;DHT22;66269;51.466;7.260;2023-02-01T15:01:22;23.10;41.70
75648;DHT22;66269;51.466;7.260;2023-02-01T15:06:46;23.10;41.70
75648;DHT22;66269;51.466;7.260;2023-02-01T15:14:36;23.20;41.60
75648;DHT22;66269;51.466;7.260;2023-02-01T15:17:03;23.20;41.70
75648;DHT22;66269;51.466;7.260;2023-02-01T15:19:29;23.20;41.70
75648;DHT22;66269;51.466;7.260;2023-02-01T15:21:57;23.20;41.60
75648;DHT22;66269;51.466;7.260;2023-02-01T15:24:28;23.20;41.80
75648;DHT22;66269;51.466;7.260;2023-02-01T15:26:55;23.20;41.90
75648;DHT22;66269;51.466;7.260;2023-02-01T15:29:23;23.20;41.60
75648;DHT22;66269;51.466;7.260;2023-02-01T15:31:53;23.20;41.70
75648;DHT22;66269;51.466;7.260;2023-02-01T15:34:20;23.20;41.60
75648;DHT22;66269;51.466;7.260;2023-02-01T15:36:46;23.20;41.40
75648;DHT22;66269;51.466;7.260;2023-02-01T15:39:20;23.20;41.40
75648;DHT22;66269;51.466;7.260;2023-02-01T15:41:56;23.20;41.50
75648;DHT22;66269;51.466;7.260;2023-02-01T15:47:29;23.10;41.90
75648;DHT22;66269;51.466;7.260;2023-02-01T15:49:58;23.10;41.70
75648;DHT22;66269;51.466;7.260;2023-02-01T15:52:36;23.10;41.70
75648;DHT22;66269;51.466;7.260;2023-02-01T15:55:16;23.10;41.60
75648;DHT22;66269;51.466;7.260;2023-02-01T15:57:42;23.10;41.80
75648;DHT22;66269;51.466;7.260;2023-02-01T16:00:28;23.10;41.70
75648;DHT22;66269;51.466;7.260;2023-02-01T16:03:04;23.10;41.40
75648;DHT22;66269;51.466;7.260;2023-02-01T16:08:35;23.10;41.70
75648;DHT22;66269;51.466;7.260;2023-02-01T16:11:20;23.20;41.50
75648;DHT22;66269;51.466;7.260;2023-02-01T16:13:47;23.10;41.60
75648;DHT22;66269;51.466;7.260;2023-02-01T16:16:12;23.00;41.70
75648;DHT22;66269;51.466;7.260;2023-02-01T16:18:40;23.00;41.60
75648;DHT22;66269;51.466;7.260;2023-02-01T16:21:06;23.10;41.50
75648;DHT22;66269;51.466;7.260;2023-02-01T16:23:34;23.10;41.70
75648;DHT22;66269;51.466;7.260;2023-02-01T16:25:59;23.00;41.60
75648;DHT22;66269;51.466;7.260;2023-02-01T16:28:25;23.00;41.70
75648;DHT22;66269;51.466;7.260;2023-02-01T16:30:51;23.00;41.70
75648;DHT22;66269;51.466;7.260;2023-02-01T16:33:19;23.00;41.70
75648;DHT22;66269;51.466;7.260;2023-02-01T16:35:47;22.90;41.80
75648;DHT22;66269;51.466;7.260;2023-02-01T16:38:16;23.00;41.70
75648;DHT22;66269;51.466;7.260;2023-02-01T16:40:45;23.00;41.60
75648;DHT22;66269;51.466;7.260;2023-02-01T16:43:16;23.00;41.90
75648;DHT22;66269;51.466;7.260;2023-02-01T16:45:43;23.00;41.70
75648;DHT22;66269;51.466;7.260;2023-02-01T16:48:22;23.00;41.90
75648;DHT22;66269;51.466;7.260;2023-02-01T16:50:51;23.00;42.00
75648;DHT22;66269;51.466;7.260;2023-02-01T16:53:18;23.00;41.80
75648;DHT22;66269;51.466;7.260;2023-02-01T16:55:44;22.90;41.60
75648;DHT22;66269;51.466;7.260;2023-02-01T16:58:11;22.90;42.00
75648;DHT22;66269;51.466;7.260;2023-02-01T17:00:37;22.90;42.00
75648;DHT22;66269;51.466;7.260;2023-02-01T17:03:04;22.90;42.00
75648;DHT22;66269;51.466;7.260;2023-02-01T17:05:31;22.90;42.00
75648;DHT22;66269;51.466;7.260;2023-02-01T17:08:01;22.90;42.30
75648;DHT22;66269;51.466;7.260;2023-02-01T17:10:29;23.00;41.90
75648;DHT22;66269;51.466;7.260;2023-02-01T17:12:55;23.00;42.10
75648;DHT22;66269;51.466;7.260;2023-02-01T17:15:23;23.10;42.00
75648;DHT22;66269;51.466;7.260;2023-02-01T17:17:49;23.10;41.70
75648;DHT22;66269;51.466;7.260;2023-02-01T17:20:21;23.20;41.80
75648;DHT22;66269;51.466;7.260;2023-02-01T17:22:48;23.20;42.00
75648;DHT22;66269;51.466;7.260;2023-02-01T17:25:19;23.20;41.70
75648;DHT22;66269;51.466;7.260;2023-02-01T17:27:45;23.20;41.90
75648;DHT22;66269;51.466;7.260;2023-02-01T17:30:12;23.20;41.80
75648;DHT22;66269;51.466;7.260;2023-02-01T17:32:38;23.20;41.70
75648;DHT22;66269;51.466;7.260;2023-02-01T17:35:08;23.20;42.00
75648;DHT22;66269;51.466;7.260;2023-02-01T17:37:37;23.20;41.90
75648;DHT22;66269;51.466;7.260;2023-02-01T17:40:03;23.20;41.90
75648;DHT22;66269;51.466;7.260;2023-02-01T17:42:29;23.20;41.90
75648;DHT22;66269;51.466;7.260;2023-02-01T17:44:57;23.20;41.70
75648;DHT22;66269;51.466;7.260;2023-02-01T17:47:24;23.10;41.80
75648;DHT22;66269;51.466;7.260;2023-02-01T17:49:50;23.20;41.90
75648;DHT22;66269;51.466;7.260;2023-02-01T17:52:21;23.10;41.90
75648;DHT22;66269;51.466;7.260;2023-02-01T17:54:47;23.20;41.90
75648;DHT22;66269;51.466;7.260;2023-02-01T17:57:15;23.10;41.90
75648;DHT22;66269;51.466;7.260;2023-02-01T17:59:41;23.10;41.80
75648;DHT22;66269;51.466;7.260;2023-02-01T18:02:17;23.20;42.00
75648;DHT22;66269;51.466;7.260;2023-02-01T18:04:43;23.10;42.00
75648;DHT22;66269;51.466;7.260;2023-02-01T18:07:09;23.10;41.80
75648;DHT22;66269;51.466;7.260;2023-02-01T18:09:34;23.10;42.00
75648;DHT22;66269;51.466;7.260;2023-02-01T18:12:01;23.10;41.80